sensor_id;sensor_type;location;lat;lon;timestamp;pressure;altitude;pressure_sealevel;temperature;humidity
80137;BME280;69466;55.948;37.484;2023-11-18T00:00:39;100510.59;;;-6.10;71.72
80137;BME280;69466;55.948;37.484;2023-11-18T00:03:05;100504.63;;;-6.14;71.51
80137;BME280;69466;55.948;37.484;2023-11-18T00:05:31;100500.31;;;-6.15;71.58
80137;BME280;69466;55.948;37.484;2023-11-18T00:07:57;100515.97;;;-6.12;71.25
80137;BME280;69466;55.948;37.484;2023-11-18T00:10:23;100518.53;;;-6.10;71.51
80137;BME280;69466;55.948;37.484;2023-11-18T00:12:49;100509.75;;;-6.11;71.93
80137;BME280;69466;55.948;37.484;2023-11-18T00:15:15;100504.81;;;-6.17;71.82
80137;BME280;69466;55.948;37.484;2023-11-18T00:17:41;100504.75;;;-6.15;71.49
80137;BME280;69466;55.948;37.484;2023-11-18T00:20:08;100512.28;;;-6.09;72.16
80137;BME280;69466;55.948;37.484;2023-11-18T00:22:42;100504.44;;;-6.25;72.29
80137;BME280;69466;55.948;37.484;2023-11-18T00:25:09;100508.22;;;-6.29;72.92
80137;BME280;69466;55.948;37.484;2023-11-18T00:27:35;100515.09;;;-6.27;72.69
80137;BME280;69466;55.948;37.484;2023-11-18T00:30:05;100515.81;;;-6.39;72.92
80137;BME280;69466;55.948;37.484;2023-11-18T00:32:34;100521.84;;;-6.37;72.95
80137;BME280;69466;55.948;37.484;2023-11-18T00:35:01;100517.59;;;-6.39;73.04
80137;BME280;69466;55.948;37.484;2023-11-18T00:37:32;100524.41;;;-6.35;73.09
80137;BME280;69466;55.948;37.484;2023-11-18T00:39:59;100523.06;;;-6.42;73.17
80137;BME280;69466;55.948;37.484;2023-11-18T00:42:25;100514.47;;;-6.46;72.84
80137;BME280;69466;55.948;37.484;2023-11-18T00:44:51;100527.31;;;-6.40;73.25
80137;BME280;69466;55.948;37.484;2023-11-18T00:47:18;100532.94;;;-6.46;73.20
80137;BME280;69466;55.948;37.484;2023-11-18T00:49:44;100532.00;;;-6.45;73.39
80137;BME280;69466;55.948;37.484;2023-11-18T00:52:10;100535.59;;;-6.46;72.92
80137;BME280;69466;55.948;37.484;2023-11-18T00:54:37;100538.34;;;-6.47;73.23
80137;BME280;69466;55.948;37.484;2023-11-18T00:57:03;100541.81;;;-6.47;73.08
80137;BME280;69466;55.948;37.484;2023-11-18T00:59:29;100541.81;;;-6.47;73.21
80137;BME280;69466;55.948;37.484;2023-11-18T01:01:55;100540.13;;;-6.48;73.07
80137;BME280;69466;55.948;37.484;2023-11-18T01:04:21;100548.97;;;-6.49;72.72
80137;BME280;69466;55.948;37.484;2023-11-18T01:06:47;100543.97;;;-6.53;73.02
80137;BME280;69466;55.948;37.484;2023-11-18T01:09:14;100531.53;;;-6.51;72.83
80137;BME280;69466;55.948;37.484;2023-11-18T01:11:42;100551.53;;;-6.47;73.13
80137;BME280;69466;55.948;37.484;2023-11-18T01:14:08;100544.34;;;-6.45;73.21
80137;BME280;69466;55.948;37.484;2023-11-18T01:16:34;100556.69;;;-6.46;73.11
80137;BME280;69466;55.948;37.484;2023-11-18T01:19:00;100551.13;;;-6.55;73.28
80137;BME280;69466;55.948;37.484;2023-11-18T01:21:26;100561.31;;;-6.49;73.71
80137;BME280;69466;55.948;37.484;2023-11-18T01:23:54;100550.53;;;-6.60;73.79
80137;BME280;69466;55.948;37.484;2023-11-18T01:26:20;100559.53;;;-6.49;73.88
80137;BME280;69466;55.948;37.484;2023-11-18T01:28:47;100548.50;;;-6.55;73.98
80137;BME280;69466;55.948;37.484;2023-11-18T01:31:13;100549.81;;;-6.48;73.99
80137;BME280;69466;55.948;37.484;2023-11-18T01:33:39;100549.81;;;-6.48;73.89
80137;BME280;69466;55.948;37.484;2023-11-18T01:36:07;100560.19;;;-6.45;73.80
80137;BME280;69466;55.948;37.484;2023-11-18T01:38:37;100541.00;;;-6.63;73.48
80137;BME280;69466;55.948;37.484;2023-11-18T01:41:07;100559.78;;;-6.53;74.21
80137;BME280;69466;55.948;37.484;2023-11-18T01:43:33;100565.53;;;-6.61;74.03
80137;BME280;69466;55.948;37.484;2023-11-18T01:46:02;100566.63;;;-6.65;74.29
80137;BME280;69466;55.948;37.484;2023-11-18T01:48:30;100568.44;;;-6.65;74.41
80137;BME280;69466;55.948;37.484;2023-11-18T01:50:59;100555.56;;;-6.72;74.36
80137;BME280;69466;55.948;37.484;2023-11-18T01:53:28;100566.91;;;-6.69;74.88
80137;BME280;69466;55.948;37.484;2023-11-18T01:55:54;100567.84;;;-6.70;75.00
80137;BME280;69466;55.948;37.484;2023-11-18T01:58:20;100568.69;;;-6.70;75.15
80137;BME280;69466;55.948;37.484;2023-11-18T02:00:49;100566.03;;;-6.70;75.29
80137;BME280;69466;55.948;37.484;2023-11-18T02:03:17;100560.59;;;-6.67;74.84
80137;BME280;69466;55.948;37.484;2023-11-18T02:05:43;100552.75;;;-6.68;74.75
80137;BME280;69466;55.948;37.484;2023-11-18T02:08:10;100563.50;;;-6.72;74.51
80137;BME280;69466;55.948;37.484;2023-11-18T02:10:48;100568.75;;;-6.72;74.84
80137;BME280;69466;55.948;37.484;2023-11-18T02:13:23;100568.00;;;-6.74;74.57
80137;BME280;69466;55.948;37.484;2023-11-18T02:15:56;100569.88;;;-6.76;74.61
80137;BME280;69466;55.948;37.484;2023-11-18T02:18:29;100572.53;;;-6.76;74.60
80137;BME280;69466;55.948;37.484;2023-11-18T02:20:59;100563.94;;;-6.79;74.71
80137;BME280;69466;55.948;37.484;2023-11-18T02:23:25;100567.31;;;-6.77;74.87
80137;BME280;69466;55.948;37.484;2023-11-18T02:25:55;100561.28;;;-6.79;74.99
80137;BME280;69466;55.948;37.484;2023-11-18T02:28:21;100556.44;;;-6.87;75.08
80137;BME280;69466;55.948;37.484;2023-11-18T02:30:53;100549.38;;;-6.86;74.76
80137;BME280;69466;55.948;37.484;2023-11-18T02:33:36;100562.31;;;-6.82;74.80
80137;BME280;69466;55.948;37.484;2023-11-18T02:36:12;100552.28;;;-6.91;74.85
80137;BME280;69466;55.948;37.484;2023-11-18T02:38:44;100561.63;;;-6.85;75.04
80137;BME280;69466;55.948;37.484;2023-11-18T02:41:13;100559.91;;;-6.86;74.95
80137;BME280;69466;55.948;37.484;2023-11-18T02:43:40;100541.13;;;-6.96;74.77
80137;BME280;69466;55.948;37.484;2023-11-18T02:46:10;100560.03;;;-6.88;74.97
80137;BME280;69466;55.948;37.484;2023-11-18T02:48:39;100560.97;;;-6.89;74.82
80137;BME280;69466;55.948;37.484;2023-11-18T02:51:07;100567.94;;;-6.88;74.78
80137;BME280;69466;55.948;37.484;2023-11-18T02:53:34;100562.81;;;-6.91;75.04
80137;BME280;69466;55.948;37.484;2023-11-18T02:56:00;100566.38;;;-6.92;74.83
80137;BME280;69466;55.948;37.484;2023-11-18T02:58:30;100565.38;;;-6.89;74.81
80137;BME280;69466;55.948;37.484;2023-11-18T03:00:57;100571.00;;;-6.95;74.90
80137;BME280;69466;55.948;37.484;2023-11-18T03:03:26;100563.84;;;-6.93;74.97
80137;BME280;69466;55.948;37.484;2023-11-18T03:05:55;100553.81;;;-7.02;74.82
80137;BME280;69466;55.948;37.484;2023-11-18T03:08:21;100556.34;;;-7.01;74.93
80137;BME280;69466;55.948;37.484;2023-11-18T03:10:47;100564.19;;;-6.99;75.15
80137;BME280;69466;55.948;37.484;2023-11-18T03:13:16;100565.81;;;-6.97;74.98
80137;BME280;69466;55.948;37.484;2023-11-18T03:15:42;100559.84;;;-7.00;75.12
80137;BME280;69466;55.948;37.484;2023-11-18T03:18:09;100555.78;;;-7.06;75.24
80137;BME280;69466;55.948;37.484;2023-11-18T03:20:35;100572.03;;;-6.98;75.46
80137;BME280;69466;55.948;37.484;2023-11-18T03:23:01;100573.56;;;-6.94;75.25
80137;BME280;69466;55.948;37.484;2023-11-18T03:25:27;100572.03;;;-6.98;75.54
80137;BME280;69466;55.948;37.484;2023-11-18T03:27:53;100571.84;;;-6.95;75.14
80137;BME280;69466;55.948;37.484;2023-11-18T03:30:20;100572.63;;;-6.93;75.49
80137;BME280;69466;55.948;37.484;2023-11-18T03:32:47;100576.84;;;-6.90;75.63
80137;BME280;69466;55.948;37.484;2023-11-18T03:35:13;100563.84;;;-6.93;75.54
80137;BME280;69466;55.948;37.484;2023-11-18T03:37:39;100563.06;;;-6.95;75.30
80137;BME280;69466;55.948;37.484;2023-11-18T03:40:08;100575.06;;;-6.90;75.17
80137;BME280;69466;55.948;37.484;2023-11-18T03:42:35;100563.59;;;-6.89;75.26
80137;BME280;69466;55.948;37.484;2023-11-18T03:45:03;100569.72;;;-6.88;75.01
80137;BME280;69466;55.948;37.484;2023-11-18T03:47:32;100568.88;;;-6.89;75.20
80137;BME280;69466;55.948;37.484;2023-11-18T03:50:00;100567.69;;;-6.99;75.16
80137;BME280;69466;55.948;37.484;2023-11-18T03:52:26;100563.34;;;-7.00;75.25
80137;BME280;69466;55.948;37.484;2023-11-18T03:54:53;100560.22;;;-7.06;75.45
80137;BME280;69466;55.948;37.484;2023-11-18T03:57:23;100568.97;;;-7.06;75.39
80137;BME280;69466;55.948;37.484;2023-11-18T03:59:49;100570.66;;;-7.05;75.84
80137;BME280;69466;55.948;37.484;2023-11-18T04:02:16;100563.78;;;-7.07;75.68
80137;BME280;69466;55.948;37.484;2023-11-18T04:04:42;100564.63;;;-7.07;75.76
80137;BME280;69466;55.948;37.484;2023-11-18T04:07:08;100564.09;;;-7.13;75.78
80137;BME280;69466;55.948;37.484;2023-11-18T04:09:34;100565.88;;;-7.14;76.19
80137;BME280;69466;55.948;37.484;2023-11-18T04:12:00;100572.78;;;-7.11;76.01
80137;BME280;69466;55.948;37.484;2023-11-18T04:14:26;100570.16;;;-7.11;76.05
80137;BME280;69466;55.948;37.484;2023-11-18T04:16:52;100565.03;;;-7.14;76.43
80137;BME280;69466;55.948;37.484;2023-11-18T04:19:19;100565.03;;;-7.14;76.05
80137;BME280;69466;55.948;37.484;2023-11-18T04:21:47;100575.25;;;-7.08;76.12
80137;BME280;69466;55.948;37.484;2023-11-18T04:24:15;100569.47;;;-7.15;76.39
80137;BME280;69466;55.948;37.484;2023-11-18T04:26:41;100571.16;;;-7.14;76.10
80137;BME280;69466;55.948;37.484;2023-11-18T04:29:07;100580.78;;;-7.13;76.15
80137;BME280;69466;55.948;37.484;2023-11-18T04:31:34;100569.56;;;-7.17;76.52
80137;BME280;69466;55.948;37.484;2023-11-18T04:34:02;100577.28;;;-7.13;75.59
80137;BME280;69466;55.948;37.484;2023-11-18T04:36:30;100576.34;;;-7.12;76.09
80137;BME280;69466;55.948;37.484;2023-11-18T04:38:57;100575.50;;;-7.13;75.94
80137;BME280;69466;55.948;37.484;2023-11-18T04:41:24;100579.84;;;-7.12;76.02
80137;BME280;69466;55.948;37.484;2023-11-18T04:43:50;100578.47;;;-7.19;75.96
80137;BME280;69466;55.948;37.484;2023-11-18T04:46:16;100572.69;;;-7.26;76.21
80137;BME280;69466;55.948;37.484;2023-11-18T04:48:43;100576.19;;;-7.25;75.96
80137;BME280;69466;55.948;37.484;2023-11-18T04:51:09;100583.84;;;-7.21;75.80
80137;BME280;69466;55.948;37.484;2023-11-18T04:53:35;100568.41;;;-7.28;75.65
80137;BME280;69466;55.948;37.484;2023-11-18T04:56:01;100578.81;;;-7.25;75.67
80137;BME280;69466;55.948;37.484;2023-11-18T04:58:28;100573.63;;;-7.27;75.93
80137;BME280;69466;55.948;37.484;2023-11-18T05:00:54;100573.69;;;-7.28;75.83
80137;BME280;69466;55.948;37.484;2023-11-18T05:03:20;100568.41;;;-7.28;75.85
80137;BME280;69466;55.948;37.484;2023-11-18T05:05:47;100563.50;;;-7.34;76.17
80137;BME280;69466;55.948;37.484;2023-11-18T05:08:20;100564.84;;;-7.27;76.18
80137;BME280;69466;55.948;37.484;2023-11-18T05:10:47;100563.25;;;-7.30;76.07
80137;BME280;69466;55.948;37.484;2023-11-18T05:13:14;100568.16;;;-7.24;76.43
80137;BME280;69466;55.948;37.484;2023-11-18T05:15:43;100574.03;;;-7.19;76.13
80137;BME280;69466;55.948;37.484;2023-11-18T05:18:14;100576.78;;;-7.20;76.07
80137;BME280;69466;55.948;37.484;2023-11-18T05:20:41;100575.75;;;-7.18;75.34
80137;BME280;69466;55.948;37.484;2023-11-18T05:23:08;100579.44;;;-7.20;75.25
80137;BME280;69466;55.948;37.484;2023-11-18T05:25:41;100586.38;;;-7.19;75.17
80137;BME280;69466;55.948;37.484;2023-11-18T05:28:09;100579.94;;;-7.29;75.59
80137;BME280;69466;55.948;37.484;2023-11-18T05:30:35;100582.38;;;-7.26;75.58
80137;BME280;69466;55.948;37.484;2023-11-18T05:33:05;100595.13;;;-7.19;75.65
80137;BME280;69466;55.948;37.484;2023-11-18T05:35:32;100593.28;;;-7.17;75.34
80137;BME280;69466;55.948;37.484;2023-11-18T05:38:01;100592.34;;;-7.15;75.57
80137;BME280;69466;55.948;37.484;2023-11-18T05:40:28;100598.31;;;-7.12;75.75
80137;BME280;69466;55.948;37.484;2023-11-18T05:42:56;100599.91;;;-7.09;75.90
80137;BME280;69466;55.948;37.484;2023-11-18T05:45:23;100598.81;;;-7.05;75.42
80137;BME280;69466;55.948;37.484;2023-11-18T05:47:57;100601.91;;;-6.97;75.09
80137;BME280;69466;55.948;37.484;2023-11-18T05:50:24;100596.25;;;-6.91;74.66
80137;BME280;69466;55.948;37.484;2023-11-18T05:52:53;100596.00;;;-6.71;74.69
80137;BME280;69466;55.948;37.484;2023-11-18T05:55:20;100608.56;;;-6.45;74.12
80137;BME280;69466;55.948;37.484;2023-11-18T05:57:50;100604.25;;;-6.16;73.07
80137;BME280;69466;55.948;37.484;2023-11-18T06:00:16;100599.16;;;-6.05;71.53
80137;BME280;69466;55.948;37.484;2023-11-18T06:02:45;100595.97;;;-5.96;71.33
80137;BME280;69466;55.948;37.484;2023-11-18T06:05:11;100609.38;;;-5.85;71.16
80137;BME280;69466;55.948;37.484;2023-11-18T06:07:39;100598.56;;;-5.66;71.17
80137;BME280;69466;55.948;37.484;2023-11-18T06:10:09;100597.16;;;-5.29;69.41
80137;BME280;69466;55.948;37.484;2023-11-18T06:12:35;100608.72;;;-4.89;67.96
80137;BME280;69466;55.948;37.484;2023-11-18T06:15:03;100604.53;;;-4.38;66.92
80137;BME280;69466;55.948;37.484;2023-11-18T06:17:31;100603.88;;;-3.89;65.10
80137;BME280;69466;55.948;37.484;2023-11-18T06:19:58;100600.56;;;-3.53;63.05
80137;BME280;69466;55.948;37.484;2023-11-18T06:22:24;100598.63;;;-3.26;62.62
80137;BME280;69466;55.948;37.484;2023-11-18T06:24:51;100587.50;;;-2.82;62.10
80137;BME280;69466;55.948;37.484;2023-11-18T06:27:18;100594.59;;;-2.46;60.39
80137;BME280;69466;55.948;37.484;2023-11-18T06:29:49;100603.59;;;-2.36;59.96
80137;BME280;69466;55.948;37.484;2023-11-18T06:32:16;100595.94;;;-2.17;58.92
80137;BME280;69466;55.948;37.484;2023-11-18T06:34:42;100593.44;;;-1.72;58.12
80137;BME280;69466;55.948;37.484;2023-11-18T06:37:09;100594.00;;;-1.34;56.78
80137;BME280;69466;55.948;37.484;2023-11-18T06:39:34;100596.63;;;-1.23;55.94
80137;BME280;69466;55.948;37.484;2023-11-18T06:42:01;100602.22;;;-1.26;55.54
80137;BME280;69466;55.948;37.484;2023-11-18T06:44:30;100596.28;;;-1.07;54.78
80137;BME280;69466;55.948;37.484;2023-11-18T06:46:56;100600.88;;;-0.87;54.93
80137;BME280;69466;55.948;37.484;2023-11-18T06:49:22;100603.41;;;-0.85;54.46
80137;BME280;69466;55.948;37.484;2023-11-18T06:51:49;100594.53;;;-0.64;54.45
80137;BME280;69466;55.948;37.484;2023-11-18T06:54:16;100580.44;;;-0.32;54.19
80137;BME280;69466;55.948;37.484;2023-11-18T06:56:43;100588.06;;;-0.07;53.10
80137;BME280;69466;55.948;37.484;2023-11-18T06:59:12;100586.56;;;0.32;52.35
80137;BME280;69466;55.948;37.484;2023-11-18T07:01:40;100589.25;;;0.41;51.25
80137;BME280;69466;55.948;37.484;2023-11-18T07:04:06;100592.19;;;0.38;52.08
80137;BME280;69466;55.948;37.484;2023-11-18T07:06:36;100597.81;;;0.35;51.58
80137;BME280;69466;55.948;37.484;2023-11-18T07:09:06;100597.19;;;0.11;52.33
80137;BME280;69466;55.948;37.484;2023-11-18T07:11:40;100597.59;;;-0.25;52.78
80137;BME280;69466;55.948;37.484;2023-11-18T07:14:10;100601.78;;;-0.43;53.68
80137;BME280;69466;55.948;37.484;2023-11-18T07:16:41;100598.41;;;-0.57;54.75
80137;BME280;69466;55.948;37.484;2023-11-18T07:19:07;100598.41;;;-0.68;55.50
80137;BME280;69466;55.948;37.484;2023-11-18T07:21:34;100598.47;;;-0.79;55.75
80137;BME280;69466;55.948;37.484;2023-11-18T07:24:01;100606.34;;;-0.88;55.94
80137;BME280;69466;55.948;37.484;2023-11-18T07:26:28;100600.88;;;-0.87;55.41
80137;BME280;69466;55.948;37.484;2023-11-18T07:28:54;100609.72;;;-0.98;55.82
80137;BME280;69466;55.948;37.484;2023-11-18T07:31:22;100606.09;;;-0.97;56.79
80137;BME280;69466;55.948;37.484;2023-11-18T07:33:49;100595.66;;;-0.77;56.15
80137;BME280;69466;55.948;37.484;2023-11-18T07:36:16;100603.63;;;-0.77;56.04
80137;BME280;69466;55.948;37.484;2023-11-18T07:38:46;100612.03;;;-0.93;56.37
80137;BME280;69466;55.948;37.484;2023-11-18T07:41:12;100611.19;;;-0.94;56.47
80137;BME280;69466;55.948;37.484;2023-11-18T07:43:50;100614.91;;;-1.18;57.97
80137;BME280;69466;55.948;37.484;2023-11-18T07:46:18;100618.16;;;-1.37;57.84
80137;BME280;69466;55.948;37.484;2023-11-18T07:48:44;100625.88;;;-1.91;59.91
80137;BME280;69466;55.948;37.484;2023-11-18T07:51:11;100626.59;;;-2.00;59.76
80137;BME280;69466;55.948;37.484;2023-11-18T07:53:38;100615.34;;;-2.28;61.38
80137;BME280;69466;55.948;37.484;2023-11-18T07:56:04;100622.81;;;-2.33;61.74
80137;BME280;69466;55.948;37.484;2023-11-18T07:58:32;100614.78;;;-2.44;61.49
80137;BME280;69466;55.948;37.484;2023-11-18T08:00:58;100629.38;;;-2.49;62.33
80137;BME280;69466;55.948;37.484;2023-11-18T08:03:26;100624.28;;;-2.52;61.79
80137;BME280;69466;55.948;37.484;2023-11-18T08:05:53;100626.94;;;-2.52;62.15
80137;BME280;69466;55.948;37.484;2023-11-18T08:08:19;100634.59;;;-2.48;62.67
80137;BME280;69466;55.948;37.484;2023-11-18T08:10:46;100626.81;;;-2.51;63.66
80137;BME280;69466;55.948;37.484;2023-11-18T08:13:14;100629.13;;;-2.46;62.81
80137;BME280;69466;55.948;37.484;2023-11-18T08:15:41;100627.19;;;-2.68;63.45
80137;BME280;69466;55.948;37.484;2023-11-18T08:18:08;100625.47;;;-2.69;63.49
80137;BME280;69466;55.948;37.484;2023-11-18T08:20:36;100631.13;;;-2.74;63.56
80137;BME280;69466;55.948;37.484;2023-11-18T08:23:02;100625.28;;;-2.79;64.31
80137;BME280;69466;55.948;37.484;2023-11-18T08:25:31;100623.31;;;-2.88;63.69
80137;BME280;69466;55.948;37.484;2023-11-18T08:28:00;100606.97;;;-2.94;64.51
80137;BME280;69466;55.948;37.484;2023-11-18T08:30:30;100616.19;;;-2.87;64.27
80137;BME280;69466;55.948;37.484;2023-11-18T08:32:56;100614.63;;;-2.90;64.55
80137;BME280;69466;55.948;37.484;2023-11-18T08:35:24;100610.69;;;-2.97;65.21
80137;BME280;69466;55.948;37.484;2023-11-18T08:37:51;100617.03;;;-2.87;65.17
80137;BME280;69466;55.948;37.484;2023-11-18T08:40:18;100610.88;;;-2.87;64.65
80137;BME280;69466;55.948;37.484;2023-11-18T08:42:49;100616.16;;;-2.75;64.16
80137;BME280;69466;55.948;37.484;2023-11-18T08:45:18;100608.16;;;-2.62;63.91
80137;BME280;69466;55.948;37.484;2023-11-18T08:47:45;100618.41;;;-2.45;62.97
80137;BME280;69466;55.948;37.484;2023-11-18T08:50:17;100612.13;;;-2.44;63.43
80137;BME280;69466;55.948;37.484;2023-11-18T08:52:46;100593.53;;;-2.44;63.26
80137;BME280;69466;55.948;37.484;2023-11-18T08:55:15;100601.16;;;-2.39;63.00
80137;BME280;69466;55.948;37.484;2023-11-18T08:57:48;100605.63;;;-2.40;62.47
80137;BME280;69466;55.948;37.484;2023-11-18T09:00:31;100609.00;;;-2.38;62.96
80137;BME280;69466;55.948;37.484;2023-11-18T09:03:16;100602.47;;;-2.21;61.53
80137;BME280;69466;55.948;37.484;2023-11-18T09:05:49;100595.69;;;-2.25;61.43
80137;BME280;69466;55.948;37.484;2023-11-18T09:08:29;100607.44;;;-2.16;60.58
80137;BME280;69466;55.948;37.484;2023-11-18T09:10:58;100612.75;;;-2.16;60.25
80137;BME280;69466;55.948;37.484;2023-11-18T09:13:26;100605.50;;;-2.14;59.94
80137;BME280;69466;55.948;37.484;2023-11-18T09:15:59;100607.88;;;-2.22;61.06
80137;BME280;69466;55.948;37.484;2023-11-18T09:18:39;100615.34;;;-2.28;60.27
80137;BME280;69466;55.948;37.484;2023-11-18T09:21:24;100605.06;;;-2.32;60.08
80137;BME280;69466;55.948;37.484;2023-11-18T09:24:01;100601.03;;;-2.38;59.77
80137;BME280;69466;55.948;37.484;2023-11-18T09:26:33;100609.00;;;-2.38;60.48
80137;BME280;69466;55.948;37.484;2023-11-18T09:29:05;100603.34;;;-2.33;59.73
80137;BME280;69466;55.948;37.484;2023-11-18T09:31:35;100583.59;;;-2.53;60.50
80137;BME280;69466;55.948;37.484;2023-11-18T09:34:03;100567.81;;;-2.67;60.66
80137;BME280;69466;55.948;37.484;2023-11-18T09:36:32;100610.72;;;-2.37;60.23
80137;BME280;69466;55.948;37.484;2023-11-18T09:38:59;100602.22;;;-2.42;60.04
80137;BME280;69466;55.948;37.484;2023-11-18T09:41:25;100602.47;;;-2.45;59.86
80137;BME280;69466;55.948;37.484;2023-11-18T09:43:53;100568.09;;;-2.59;60.01
80137;BME280;69466;55.948;37.484;2023-11-18T09:46:29;100598.34;;;-2.49;60.10
80137;BME280;69466;55.948;37.484;2023-11-18T09:49:21;100597.19;;;-2.57;58.94
80137;BME280;69466;55.948;37.484;2023-11-18T09:51:57;100592.00;;;-2.59;58.81
80137;BME280;69466;55.948;37.484;2023-11-18T09:57:16;100608.44;;;-2.54;59.07
80137;BME280;69466;55.948;37.484;2023-11-18T10:00:07;100603.13;;;-2.54;59.59
80137;BME280;69466;55.948;37.484;2023-11-18T10:02:47;100599.44;;;-2.64;59.32
80137;BME280;69466;55.948;37.484;2023-11-18T10:05:16;100603.91;;;-2.64;59.35
80137;BME280;69466;55.948;37.484;2023-11-18T10:07:47;100602.09;;;-2.64;58.98
80137;BME280;69466;55.948;37.484;2023-11-18T10:10:13;100594.91;;;-2.75;59.18
80137;BME280;69466;55.948;37.484;2023-11-18T10:12:43;100598.22;;;-2.71;58.86
80137;BME280;69466;55.948;37.484;2023-11-18T10:15:20;100596.41;;;-2.71;59.44
80137;BME280;69466;55.948;37.484;2023-11-18T10:17:50;100579.28;;;-2.79;59.42
80137;BME280;69466;55.948;37.484;2023-11-18T10:23:11;100576.78;;;-2.81;58.12
80137;BME280;69466;55.948;37.484;2023-11-18T10:25:47;100595.88;;;-2.76;58.88
80137;BME280;69466;55.948;37.484;2023-11-18T10:30:50;100591.75;;;-2.80;58.55
80137;BME280;69466;55.948;37.484;2023-11-18T10:33:20;100581.28;;;-2.94;58.87
80137;BME280;69466;55.948;37.484;2023-11-18T10:35:50;100590.91;;;-2.93;58.50
80137;BME280;69466;55.948;37.484;2023-11-18T10:38:17;100592.41;;;-2.89;59.19
80137;BME280;69466;55.948;37.484;2023-11-18T10:40:44;100593.47;;;-2.91;59.69
80137;BME280;69466;55.948;37.484;2023-11-18T10:43:10;100584.56;;;-2.90;59.74
80137;BME280;69466;55.948;37.484;2023-11-18T10:45:36;100587.44;;;-2.93;60.41
80137;BME280;69466;55.948;37.484;2023-11-18T10:48:06;100590.91;;;-2.93;60.36
80137;BME280;69466;55.948;37.484;2023-11-18T10:50:33;100584.25;;;-2.98;59.52
80137;BME280;69466;55.948;37.484;2023-11-18T10:53:02;100593.28;;;-3.01;59.54
80137;BME280;69466;55.948;37.484;2023-11-18T10:55:39;100584.13;;;-2.97;59.76
80137;BME280;69466;55.948;37.484;2023-11-18T10:58:06;100587.13;;;-3.01;59.92
80137;BME280;69466;55.948;37.484;2023-11-18T11:03:15;100588.59;;;-2.97;60.41
80137;BME280;69466;55.948;37.484;2023-11-18T11:05:41;100587.72;;;-2.98;60.08
80137;BME280;69466;55.948;37.484;2023-11-18T11:08:11;100582.75;;;-3.02;60.79
80137;BME280;69466;55.948;37.484;2023-11-18T11:10:40;100579.81;;;-3.10;60.27
80137;BME280;69466;55.948;37.484;2023-11-18T11:13:11;100570.59;;;-3.18;60.33
80137;BME280;69466;55.948;37.484;2023-11-18T11:15:42;100586.19;;;-3.13;59.42
80137;BME280;69466;55.948;37.484;2023-11-18T11:18:11;100584.91;;;-3.07;59.81
80137;BME280;69466;55.948;37.484;2023-11-18T11:20:47;100581.09;;;-3.16;60.18
80137;BME280;69466;55.948;37.484;2023-11-18T11:26:02;100577.16;;;-3.10;60.90
80137;BME280;69466;55.948;37.484;2023-11-18T11:28:42;100588.63;;;-3.10;60.60
80137;BME280;69466;55.948;37.484;2023-11-18T11:31:21;100577.91;;;-3.08;61.27
80137;BME280;69466;55.948;37.484;2023-11-18T11:33:59;100590.22;;;-3.07;61.47
80137;BME280;69466;55.948;37.484;2023-11-18T11:36:38;100588.84;;;-3.13;61.35
80137;BME280;69466;55.948;37.484;2023-11-18T11:39:08;100588.94;;;-3.15;60.87
80137;BME280;69466;55.948;37.484;2023-11-18T11:41:44;100578.66;;;-3.19;61.10
80137;BME280;69466;55.948;37.484;2023-11-18T11:44:13;100589.47;;;-3.09;61.40
80137;BME280;69466;55.948;37.484;2023-11-18T11:46:40;100585.34;;;-3.14;61.26
80137;BME280;69466;55.948;37.484;2023-11-18T11:49:09;100577.16;;;-3.10;60.62
80137;BME280;69466;55.948;37.484;2023-11-18T11:51:57;100571.66;;;-3.07;61.41
80137;BME280;69466;55.948;37.484;2023-11-18T11:54:27;100577.56;;;-3.04;60.68
80137;BME280;69466;55.948;37.484;2023-11-18T11:56:58;100580.00;;;-3.01;61.00
80137;BME280;69466;55.948;37.484;2023-11-18T12:02:10;100577.28;;;-3.12;61.57
80137;BME280;69466;55.948;37.484;2023-11-18T12:04:37;100589.69;;;-3.13;60.87
80137;BME280;69466;55.948;37.484;2023-11-18T12:07:09;100586.81;;;-3.09;60.66
80137;BME280;69466;55.948;37.484;2023-11-18T12:09:36;100582.59;;;-3.12;60.66
80137;BME280;69466;55.948;37.484;2023-11-18T12:12:05;100582.91;;;-3.17;61.11
80137;BME280;69466;55.948;37.484;2023-11-18T12:15:10;100584.59;;;-3.16;60.88
80137;BME280;69466;55.948;37.484;2023-11-18T12:20:51;100580.59;;;-3.21;61.10
80137;BME280;69466;55.948;37.484;2023-11-18T12:23:21;100589.59;;;-3.24;61.43
80137;BME280;69466;55.948;37.484;2023-11-18T12:25:51;100583.13;;;-3.20;61.05
80137;BME280;69466;55.948;37.484;2023-11-18T12:28:27;100584.28;;;-3.24;60.79
80137;BME280;69466;55.948;37.484;2023-11-18T12:30:57;100586.00;;;-3.23;60.81
80137;BME280;69466;55.948;37.484;2023-11-18T12:34:05;100588.22;;;-3.17;61.02
80137;BME280;69466;55.948;37.484;2023-11-18T12:37:15;100590.97;;;-3.18;60.59
80137;BME280;69466;55.948;37.484;2023-11-18T12:39:56;100586.28;;;-3.15;60.04
80137;BME280;69466;55.948;37.484;2023-11-18T12:42:57;100580.69;;;-3.23;61.40
80137;BME280;69466;55.948;37.484;2023-11-18T12:48:20;100584.59;;;-3.16;60.64
80137;BME280;69466;55.948;37.484;2023-11-18T12:50:55;100584.91;;;-3.20;61.51
80137;BME280;69466;55.948;37.484;2023-11-18T12:53:23;100596.50;;;-3.21;61.70
80137;BME280;69466;55.948;37.484;2023-11-18T12:55:50;100593.09;;;-3.23;61.42
80137;BME280;69466;55.948;37.484;2023-11-18T12:58:17;100596.59;;;-3.23;62.80
80137;BME280;69466;55.948;37.484;2023-11-18T13:00:44;100585.56;;;-3.29;61.69
80137;BME280;69466;55.948;37.484;2023-11-18T13:03:11;100593.44;;;-3.28;61.59
80137;BME280;69466;55.948;37.484;2023-11-18T13:05:41;100591.94;;;-3.32;62.36
80137;BME280;69466;55.948;37.484;2023-11-18T13:08:09;100588.88;;;-3.38;61.82
80137;BME280;69466;55.948;37.484;2023-11-18T13:10:35;100600.94;;;-3.34;62.55
80137;BME280;69466;55.948;37.484;2023-11-18T13:13:03;100598.19;;;-3.33;62.56